createdAt,value
2023-05-18T00:02:26.664Z,101643.16
2023-05-18T00:05:02.330Z,101647.66
2023-05-18T00:07:35.233Z,101650.38
2023-05-18T00:10:08.800Z,101646.95
2023-05-18T00:12:41.739Z,101644.85
2023-05-18T00:15:14.448Z,101641.42
2023-05-18T00:17:46.825Z,101641.80
2023-05-18T00:20:22.276Z,101633.95
2023-05-18T00:22:55.105Z,101632.60
2023-05-18T00:25:27.380Z,101626.92
2023-05-18T00:27:59.794Z,101627.95
2023-05-18T00:30:32.435Z,101628.08
2023-05-18T00:33:05.339Z,101626.83
2023-05-18T00:35:37.703Z,101623.20
2023-05-18T00:38:12.210Z,101619.05
2023-05-18T00:40:45.080Z,101622.05
2023-05-18T00:43:18.218Z,101614.02
2023-05-18T00:45:50.775Z,101613.14
2023-05-18T00:48:23.333Z,101610.10
2023-05-18T00:50:56.541Z,101615.02
2023-05-18T00:53:28.983Z,101614.11
2023-05-18T00:56:01.354Z,101600.83
2023-05-18T00:58:33.675Z,101617.75
2023-05-18T01:01:07.290Z,101615.39
2023-05-18T01:03:40.638Z,101620.05
2023-05-18T01:06:14.931Z,101627.82
2023-05-18T01:08:48.610Z,101627.45
2023-05-18T01:11:28.040Z,101634.97
2023-05-18T01:14:07.486Z,101609.34
2023-05-18T01:16:44.859Z,101645.76
2023-05-18T01:19:37.705Z,101646.44
2023-05-18T01:22:23.267Z,101652.53
2023-05-18T01:25:04.865Z,101662.98
2023-05-18T01:27:37.772Z,101667.09
2023-05-18T01:30:11.831Z,101671.59
2023-05-18T01:32:46.542Z,101667.03
2023-05-18T01:35:17.595Z,101667.44
2023-05-18T01:37:59.289Z,101671.39
2023-05-18T01:40:58.018Z,101676.13
2023-05-18T01:43:34.468Z,101683.86
2023-05-18T01:46:15.162Z,101684.54
2023-05-18T01:48:55.272Z,101685.61
2023-05-18T01:51:52.306Z,101688.55
2023-05-18T01:54:37.016Z,101685.32
2023-05-18T01:57:19.864Z,101683.36
2023-05-18T01:59:54.447Z,101675.67
2023-05-18T02:02:25.353Z,101672.82
2023-05-18T02:04:58.524Z,101668.11
2023-05-18T02:07:31.256Z,101674.84
2023-05-18T02:10:03.615Z,101678.56
2023-05-18T02:12:36.082Z,101677.34
2023-05-18T02:15:10.451Z,101679.79
2023-05-18T02:17:45.319Z,101684.59
2023-05-18T02:20:19.282Z,101679.83
2023-05-18T02:22:51.516Z,101689.77
2023-05-18T02:25:24.470Z,101693.09
2023-05-18T02:27:57.219Z,101693.22
2023-05-18T02:30:33.212Z,101697.56
2023-05-18T02:33:05.691Z,101695.20
2023-05-18T02:35:41.325Z,101691.02
2023-05-18T02:38:14.043Z,101689.02
2023-05-18T02:40:51.182Z,101690.09
2023-05-18T02:43:32.741Z,101691.27
2023-05-18T02:46:09.072Z,101697.70
2023-05-18T02:48:46.619Z,101695.95
2023-05-18T02:51:23.167Z,101698.31
2023-05-18T02:54:00.801Z,101695.65
2023-05-18T02:56:42.265Z,101697.28
2023-05-18T02:59:29.629Z,101695.69
2023-05-18T03:02:02.395Z,101697.65
2023-05-18T03:04:39.091Z,101703.44
2023-05-18T03:07:18.092Z,101708.41
2023-05-18T03:09:53.741Z,101716.13
2023-05-18T03:12:27.013Z,101720.77
2023-05-18T03:15:00.483Z,101703.52
2023-05-18T03:17:37.913Z,101714.21
2023-05-18T03:20:15.802Z,101713.08
2023-05-18T03:22:48.503Z,101712.54
2023-05-18T03:25:21.235Z,101715.84
2023-05-18T03:27:54.787Z,101716.87
2023-05-18T03:30:27.341Z,101720.55
2023-05-18T03:33:00.738Z,101709.00
2023-05-18T03:35:34.236Z,101713.73
2023-05-18T03:38:07.072Z,101726.70
2023-05-18T03:40:41.977Z,101729.58
2023-05-18T03:43:14.258Z,101724.80
2023-05-18T03:45:47.028Z,101722.20
2023-05-18T03:48:20.333Z,101724.17
2023-05-18T03:50:53.946Z,101729.21
2023-05-18T03:53:27.499Z,101735.20
2023-05-18T03:56:02.406Z,101739.03
2023-05-18T03:58:37.109Z,101743.96
2023-05-18T04:01:10.184Z,101746.38
2023-05-18T04:03:42.740Z,101748.05
2023-05-18T04:06:16.825Z,101749.98
2023-05-18T04:08:49.667Z,101752.28
2023-05-18T04:11:22.727Z,101757.04
2023-05-18T04:13:55.214Z,101756.64
2023-05-18T04:16:28.765Z,101758.67
2023-05-18T04:19:01.813Z,101762.73
2023-05-18T04:21:35.795Z,101767.05
2023-05-18T04:24:09.888Z,101766.94
2023-05-18T04:26:44.411Z,101768.19
2023-05-18T04:29:17.527Z,101772.58
2023-05-18T04:31:49.946Z,101778.20
2023-05-18T04:34:24.352Z,101784.77
2023-05-18T04:36:58.752Z,101779.52
2023-05-18T04:39:31.347Z,101784.54
2023-05-18T04:42:04.747Z,101788.88
2023-05-18T04:44:39.306Z,101785.10
2023-05-18T04:47:13.936Z,101791.33
2023-05-18T04:49:46.439Z,101791.73
2023-05-18T04:52:18.635Z,101779.66
2023-05-18T04:54:51.342Z,101793.85
2023-05-18T04:57:24.211Z,101800.04
2023-05-18T04:59:58.810Z,101804.56
2023-05-18T05:02:31.353Z,101806.69
2023-05-18T05:05:03.711Z,101789.80
2023-05-18T05:07:36.021Z,101796.94
2023-05-18T05:10:10.261Z,101799.46
2023-05-18T05:12:44.226Z,101812.12
2023-05-18T05:15:16.828Z,101812.58
2023-05-18T05:17:51.209Z,101808.30
2023-05-18T05:20:24.379Z,101804.83
2023-05-18T05:22:57.112Z,101795.05
2023-05-18T05:25:31.868Z,101807.52
2023-05-18T05:28:04.805Z,101811.09
2023-05-18T05:30:38.107Z,101812.92
2023-05-18T05:33:10.943Z,101817.06
2023-05-18T05:35:44.124Z,101818.04
2023-05-18T05:38:16.919Z,101821.20
2023-05-18T05:40:50.206Z,101818.81
2023-05-18T05:43:23.402Z,101819.15
2023-05-18T05:45:56.685Z,101816.10
2023-05-18T05:48:29.805Z,101815.09
2023-05-18T05:51:02.601Z,101812.98
2023-05-18T05:53:35.985Z,101820.00
2023-05-18T05:56:10.602Z,101826.45
2023-05-18T05:58:46.270Z,101825.48
2023-05-18T06:01:18.937Z,101814.65
2023-05-18T06:03:52.061Z,101826.58
2023-05-18T06:06:24.128Z,101826.89
2023-05-18T06:08:56.304Z,101825.77
2023-05-18T06:11:29.978Z,101824.01
2023-05-18T06:14:02.868Z,101812.98
2023-05-18T06:16:35.594Z,101820.31
2023-05-18T06:19:08.059Z,101805.05
2023-05-18T06:21:40.343Z,101820.21
2023-05-18T06:24:13.694Z,101804.10
2023-05-18T06:26:50.299Z,101816.14
2023-05-18T06:29:43.534Z,101815.79
2023-05-18T06:32:34.304Z,101820.11
2023-05-18T06:35:07.420Z,101823.16
2023-05-18T06:37:40.246Z,101822.60
2023-05-18T06:40:13.415Z,101821.48
2023-05-18T06:42:46.507Z,101824.05
2023-05-18T06:45:47.288Z,101828.21
2023-05-18T06:48:35.876Z,101831.52
2023-05-18T06:51:08.389Z,101833.71
2023-05-18T06:53:40.866Z,101829.83
2023-05-18T06:56:13.393Z,101830.73
2023-05-18T06:58:46.490Z,101821.91
2023-05-18T07:01:19.475Z,101836.63
2023-05-18T07:03:52.280Z,101840.71
2023-05-18T07:06:24.838Z,101843.81
2023-05-18T07:08:57.727Z,101843.39
2023-05-18T07:11:30.129Z,101826.17
2023-05-18T07:14:02.562Z,101843.73
2023-05-18T07:16:35.578Z,101845.63
2023-05-18T07:19:08.007Z,101846.23
2023-05-18T07:21:40.286Z,101847.58
2023-05-18T07:24:12.389Z,101846.52
2023-05-18T07:26:44.709Z,101842.30
2023-05-18T07:29:16.854Z,101843.08
2023-05-18T07:31:49.352Z,101843.33
2023-05-18T07:34:21.700Z,101842.64
2023-05-18T07:36:53.952Z,101837.92
2023-05-18T07:39:28.938Z,101834.05
2023-05-18T07:42:02.127Z,101833.70
2023-05-18T07:44:34.629Z,101832.77
2023-05-18T07:47:07.853Z,101829.47
2023-05-18T07:49:40.189Z,101838.20
2023-05-18T07:52:12.518Z,101837.94
2023-05-18T07:54:44.632Z,101837.29
2023-05-18T07:57:16.931Z,101839.53
2023-05-18T07:59:49.471Z,101830.65
2023-05-18T08:02:21.832Z,101842.85
2023-05-18T08:04:54.417Z,101841.52
2023-05-18T08:07:30.129Z,101847.02
2023-05-18T08:10:02.376Z,101841.84
2023-05-18T08:12:34.681Z,101843.70
2023-05-18T08:15:08.914Z,101844.04
2023-05-18T08:17:41.397Z,101833.55
2023-05-18T08:20:14.865Z,101836.20
2023-05-18T08:22:47.021Z,101837.00
2023-05-18T08:25:19.112Z,101837.05
2023-05-18T08:27:51.854Z,101836.52
2023-05-18T08:30:24.264Z,101833.81
2023-05-18T08:32:56.930Z,101832.33
2023-05-18T08:35:29.253Z,101831.68
2023-05-18T08:38:02.944Z,101830.63
2023-05-18T08:40:43.662Z,101825.23
2023-05-18T08:43:23.340Z,101820.77
2023-05-18T08:46:04.058Z,101818.70
2023-05-18T08:48:37.829Z,101823.70
2023-05-18T08:51:11.721Z,101825.38
2023-05-18T08:53:45.361Z,101822.31
2023-05-18T08:56:17.889Z,101820.27
2023-05-18T08:58:52.011Z,101823.12
2023-05-18T09:01:28.846Z,101821.09
2023-05-18T09:04:02.186Z,101814.98
2023-05-18T09:06:35.908Z,101812.30
2023-05-18T09:09:08.491Z,101810.05
2023-05-18T09:11:41.331Z,101809.49
2023-05-18T09:14:13.746Z,101805.45
2023-05-18T09:16:46.059Z,101800.42
2023-05-18T09:19:18.862Z,101799.80
2023-05-18T09:21:51.181Z,101799.51
2023-05-18T09:24:25.001Z,101772.65
2023-05-18T09:26:57.604Z,101793.81
2023-05-18T09:29:31.143Z,101796.33
2023-05-18T09:32:09.723Z,101797.04
2023-05-18T09:34:46.306Z,101779.59
2023-05-18T09:37:20.728Z,101782.82
2023-05-18T09:40:02.289Z,101793.05
2023-05-18T09:42:41.537Z,101775.52
2023-05-18T09:45:26.095Z,101792.23
2023-05-18T09:47:58.434Z,101792.80
2023-05-18T09:50:30.940Z,101792.34
2023-05-18T09:53:03.019Z,101790.27
2023-05-18T09:55:37.636Z,101795.34
2023-05-18T09:58:11.560Z,101793.64
2023-05-18T10:00:51.733Z,101793.70
2023-05-18T10:03:26.028Z,101796.92
2023-05-18T10:06:02.498Z,101794.81
2023-05-18T10:08:35.890Z,101797.46
2023-05-18T10:11:08.430Z,101797.29
2023-05-18T10:13:43.904Z,101796.16
2023-05-18T10:16:18.204Z,101786.38
2023-05-18T10:18:50.921Z,101799.69
2023-05-18T10:21:25.450Z,101799.14
2023-05-18T10:23:59.454Z,101797.28
2023-05-18T10:26:36.411Z,101785.91
2023-05-18T10:29:09.261Z,101790.61
2023-05-18T10:31:42.682Z,101794.06
2023-05-18T10:34:16.182Z,101791.23
2023-05-18T10:36:48.549Z,101786.59
2023-05-18T10:39:21.407Z,101785.50
2023-05-18T10:41:55.695Z,101785.92
2023-05-18T10:44:28.611Z,101789.35
2023-05-18T10:47:01.455Z,101780.91
2023-05-18T10:49:35.471Z,101769.48
2023-05-18T10:52:10.169Z,101788.70
2023-05-18T10:54:43.215Z,101787.48
2023-05-18T10:57:17.677Z,101778.04
2023-05-18T10:59:50.217Z,101778.81
2023-05-18T11:02:23.682Z,101778.86
2023-05-18T11:04:57.446Z,101782.76
2023-05-18T11:07:31.288Z,101781.09
2023-05-18T11:10:04.888Z,101782.15
2023-05-18T11:12:39.655Z,101777.02
2023-05-18T11:15:10.921Z,101779.13
2023-05-18T11:17:43.770Z,101778.23
2023-05-18T11:20:18.183Z,101778.32
2023-05-18T11:22:52.652Z,101780.77
2023-05-18T11:25:45.368Z,101781.23
2023-05-18T11:28:18.011Z,101775.55
2023-05-18T11:30:54.228Z,101775.05
2023-05-18T11:33:31.012Z,101771.98
2023-05-18T11:36:11.670Z,101774.01
2023-05-18T11:38:55.546Z,101765.31
2023-05-18T11:41:35.798Z,101775.50
2023-05-18T11:44:18.715Z,101775.66
2023-05-18T11:47:03.735Z,101776.77
2023-05-18T11:49:43.650Z,101774.41
2023-05-18T11:52:21.624Z,101772.37
2023-05-18T11:54:55.634Z,101773.51
2023-05-18T11:57:40.129Z,101772.09
2023-05-18T12:00:15.836Z,101769.91
2023-05-18T12:02:50.269Z,101773.64
2023-05-18T12:05:23.171Z,101770.30
2023-05-18T12:07:56.820Z,101773.80
2023-05-18T12:10:29.729Z,101769.71
2023-05-18T12:13:02.882Z,101769.98
2023-05-18T12:15:36.408Z,101767.23
2023-05-18T12:18:08.636Z,101763.34
2023-05-18T12:20:43.712Z,101766.46
2023-05-18T12:23:16.115Z,101768.50
2023-05-18T12:25:48.940Z,101767.79
2023-05-18T12:28:21.219Z,101771.34
2023-05-18T12:30:59.281Z,101756.00
2023-05-18T12:33:34.237Z,101766.02
2023-05-18T12:36:11.045Z,101765.38
2023-05-18T12:38:43.366Z,101763.27
2023-05-18T12:41:24.671Z,101756.56
2023-05-18T12:43:58.482Z,101762.77
2023-05-18T12:46:30.879Z,101746.64
2023-05-18T12:49:05.057Z,101757.77
2023-05-18T12:51:38.504Z,101752.43
2023-05-18T12:54:11.005Z,101747.17
2023-05-18T12:57:02.129Z,101753.84
2023-05-18T12:59:34.918Z,101750.83
2023-05-18T13:02:08.182Z,101746.55
2023-05-18T13:04:40.640Z,101752.52
2023-05-18T13:07:14.405Z,101751.16
2023-05-18T13:09:49.768Z,101754.14
2023-05-18T13:12:39.412Z,101750.72
2023-05-18T13:15:17.392Z,101748.66
2023-05-18T13:17:59.215Z,101742.52
2023-05-18T13:20:40.665Z,101743.06
2023-05-18T13:23:15.274Z,101740.35
2023-05-18T13:25:46.414Z,101738.69
2023-05-18T13:28:20.266Z,101738.20
2023-05-18T13:30:52.674Z,101734.89
2023-05-18T13:33:24.748Z,101737.12
2023-05-18T13:35:56.836Z,101735.89
2023-05-18T13:38:29.261Z,101741.31
2023-05-18T13:41:01.562Z,101739.38
2023-05-18T13:43:33.850Z,101738.55
2023-05-18T13:46:06.713Z,101735.84
2023-05-18T13:48:38.908Z,101735.39
2023-05-18T13:51:11.231Z,101734.17
2023-05-18T13:53:44.269Z,101735.30
2023-05-18T13:56:16.857Z,101736.00
2023-05-18T13:58:50.241Z,101737.89
2023-05-18T14:01:22.518Z,101737.20
2023-05-18T14:03:55.030Z,101731.57
2023-05-18T14:06:28.216Z,101716.97
2023-05-18T14:09:00.658Z,101728.88
2023-05-18T14:11:34.672Z,101713.37
2023-05-18T14:14:06.912Z,101723.30
2023-05-18T14:16:39.238Z,101724.00
2023-05-18T14:19:11.702Z,101716.57
2023-05-18T14:21:43.788Z,101715.20
2023-05-18T14:24:16.058Z,101718.45
2023-05-18T14:26:48.571Z,101711.77
2023-05-18T14:29:21.498Z,101712.29
2023-05-18T14:31:53.776Z,101702.15
2023-05-18T14:34:27.104Z,101707.74
2023-05-18T14:36:59.406Z,101714.39
2023-05-18T14:39:31.673Z,101709.77
2023-05-18T14:42:03.782Z,101708.23
2023-05-18T14:44:36.195Z,101708.94
2023-05-18T14:47:10.402Z,101707.63
2023-05-18T14:49:42.998Z,101712.05
2023-05-18T14:52:15.245Z,101705.90
2023-05-18T14:54:47.940Z,101707.40
2023-05-18T14:57:20.874Z,101708.13
2023-05-18T14:59:53.354Z,101703.49
2023-05-18T15:02:25.557Z,101704.73
2023-05-18T15:04:57.940Z,101705.23
2023-05-18T15:07:30.410Z,101701.48
2023-05-18T15:10:02.669Z,101706.85
2023-05-18T15:12:35.068Z,101703.98
2023-05-18T15:15:08.630Z,101704.31
2023-05-18T15:17:41.305Z,101700.61
2023-05-18T15:20:15.620Z,101705.42
2023-05-18T15:22:48.065Z,101704.02
2023-05-18T15:25:21.225Z,101703.74
2023-05-18T15:27:54.132Z,101707.34
2023-05-18T15:30:28.878Z,101692.27
2023-05-18T15:33:02.222Z,101687.92
2023-05-18T15:35:36.353Z,101700.39
2023-05-18T15:38:08.622Z,101687.59
2023-05-18T15:40:42.183Z,101689.95
2023-05-18T15:43:14.219Z,101700.58
2023-05-18T15:45:46.613Z,101697.85
2023-05-18T15:48:18.814Z,101695.54
2023-05-18T15:50:51.122Z,101700.23
2023-05-18T15:53:23.575Z,101695.34
2023-05-18T15:55:58.694Z,101691.77
2023-05-18T15:58:31.831Z,101690.49
2023-05-18T16:01:04.594Z,101689.85
2023-05-18T16:03:37.122Z,101691.66
2023-05-18T16:06:09.815Z,101689.35
2023-05-18T16:08:42.041Z,101688.97
2023-05-18T16:11:14.363Z,101693.88
2023-05-18T16:13:48.242Z,101692.77
2023-05-18T16:16:21.224Z,101692.48
2023-05-18T16:18:54.068Z,101685.75
2023-05-18T16:21:26.664Z,101686.80
2023-05-18T16:23:58.999Z,101688.82
2023-05-18T16:26:31.690Z,101676.63
2023-05-18T16:29:05.077Z,101684.13
2023-05-18T16:31:37.806Z,101681.64
2023-05-18T16:34:10.363Z,101678.40
2023-05-18T16:36:42.620Z,101671.70
2023-05-18T16:39:15.003Z,101679.94
2023-05-18T16:41:47.534Z,101682.52
2023-05-18T16:44:19.805Z,101680.83
2023-05-18T16:46:52.939Z,101671.55
2023-05-18T16:49:25.399Z,101660.98
2023-05-18T16:51:58.215Z,101682.77
2023-05-18T16:54:30.611Z,101680.34
2023-05-18T16:57:05.221Z,101680.48
2023-05-18T16:59:37.289Z,101666.92
2023-05-18T17:02:13.247Z,101680.58
2023-05-18T17:04:46.341Z,101682.84
2023-05-18T17:07:19.067Z,101682.27
2023-05-18T17:09:51.320Z,101686.30
2023-05-18T17:12:23.627Z,101683.77
2023-05-18T17:14:55.844Z,101681.66
2023-05-18T17:17:28.179Z,101682.77
2023-05-18T17:20:00.702Z,101682.96
2023-05-18T17:22:33.227Z,101689.30
2023-05-18T17:25:05.977Z,101693.14
2023-05-18T17:27:38.264Z,101688.08
2023-05-18T17:30:12.104Z,101687.49
2023-05-18T17:32:45.693Z,101686.33
2023-05-18T17:35:18.364Z,101688.50
2023-05-18T17:37:50.554Z,101688.97
2023-05-18T17:40:23.666Z,101692.25
2023-05-18T17:42:55.909Z,101693.52
2023-05-18T17:45:28.212Z,101695.09
2023-05-18T17:48:00.672Z,101692.29
2023-05-18T17:50:33.167Z,101693.67
2023-05-18T17:53:06.099Z,101692.56
2023-05-18T17:55:38.403Z,101693.19
2023-05-18T17:58:10.631Z,101691.54
2023-05-18T18:00:43.234Z,101690.42
2023-05-18T18:03:17.465Z,101693.44
2023-05-18T18:05:49.982Z,101691.87
2023-05-18T18:08:22.316Z,101690.85
2023-05-18T18:10:54.511Z,101692.05
2023-05-18T18:13:26.738Z,101693.19
2023-05-18T18:15:59.357Z,101693.91
2023-05-18T18:18:31.965Z,101695.55
2023-05-18T18:21:04.311Z,101695.88
2023-05-18T18:23:37.006Z,101702.77
2023-05-18T18:26:09.939Z,101702.98
2023-05-18T18:28:42.368Z,101703.55
2023-05-18T18:31:15.274Z,101702.88
2023-05-18T18:33:50.337Z,101708.86
2023-05-18T18:36:24.901Z,101710.80
2023-05-18T18:38:58.390Z,101710.70
2023-05-18T18:41:30.692Z,101712.59
2023-05-18T18:44:03.192Z,101712.24
2023-05-18T18:46:35.749Z,101717.52
2023-05-18T18:49:08.229Z,101720.14
2023-05-18T18:51:41.687Z,101724.64
2023-05-18T18:54:13.927Z,101727.59
2023-05-18T18:56:46.376Z,101732.73
2023-05-18T18:59:21.024Z,101732.55
2023-05-18T19:01:54.292Z,101732.20
2023-05-18T19:04:27.103Z,101730.95
2023-05-18T19:07:01.769Z,101737.48
2023-05-18T19:09:36.253Z,101725.23
2023-05-18T19:12:10.591Z,101735.52
2023-05-18T19:14:42.993Z,101736.36
2023-05-18T19:17:15.569Z,101738.44
2023-05-18T19:19:50.026Z,101738.19
2023-05-18T19:22:23.306Z,101742.73
2023-05-18T19:24:55.613Z,101741.23
2023-05-18T19:27:27.845Z,101743.60
2023-05-18T19:30:02.453Z,101747.59
2023-05-18T19:32:35.417Z,101749.11
2023-05-18T19:35:08.781Z,101752.53
2023-05-18T19:37:41.159Z,101750.83
2023-05-18T19:40:14.311Z,101741.61
2023-05-18T19:42:46.555Z,101753.65
2023-05-18T19:45:19.147Z,101756.09
2023-05-18T19:47:51.495Z,101758.86
2023-05-18T19:50:23.987Z,101759.02
2023-05-18T19:52:56.482Z,101764.34
2023-05-18T19:55:29.139Z,101766.42
2023-05-18T19:58:02.105Z,101767.39
2023-05-18T20:00:34.633Z,101769.50
2023-05-18T20:03:09.504Z,101766.77
2023-05-18T20:05:43.824Z,101768.15
2023-05-18T20:08:16.583Z,101771.38
2023-05-18T20:10:49.148Z,101775.58
2023-05-18T20:13:21.275Z,101776.88
2023-05-18T20:15:53.649Z,101776.48
2023-05-18T20:18:28.635Z,101775.88
2023-05-18T20:21:01.014Z,101781.05
2023-05-18T20:23:34.279Z,101781.76
2023-05-18T20:26:07.071Z,101782.06
2023-05-18T20:28:39.502Z,101784.52
2023-05-18T20:31:11.820Z,101781.69
2023-05-18T20:33:44.700Z,101786.73
2023-05-18T20:36:17.581Z,101782.77
2023-05-18T20:38:50.419Z,101785.69
2023-05-18T20:41:23.419Z,101783.59
2023-05-18T20:43:55.932Z,101786.36
2023-05-18T20:46:28.400Z,101783.71
2023-05-18T20:49:00.763Z,101786.82
2023-05-18T20:51:33.087Z,101788.69
2023-05-18T20:54:05.318Z,101789.35
2023-05-18T20:56:38.696Z,101790.20
2023-05-18T20:59:12.677Z,101794.23
2023-05-18T21:01:45.379Z,101786.45
2023-05-18T21:04:19.383Z,101801.52
2023-05-18T21:06:52.253Z,101803.63
2023-05-18T21:09:24.852Z,101803.16
2023-05-18T21:11:57.279Z,101798.51
2023-05-18T21:14:29.549Z,101797.52
2023-05-18T21:17:01.819Z,101798.81
2023-05-18T21:19:34.300Z,101800.87
2023-05-18T21:22:07.419Z,101805.94
2023-05-18T21:24:39.767Z,101801.60
2023-05-18T21:27:12.165Z,101813.16
2023-05-18T21:29:44.575Z,101797.70
2023-05-18T21:32:16.970Z,101811.10
2023-05-18T21:34:49.356Z,101815.02
2023-05-18T21:37:22.032Z,101813.16
2023-05-18T21:39:54.511Z,101810.70
2023-05-18T21:42:27.248Z,101804.76
2023-05-18T21:44:59.892Z,101815.38
2023-05-18T21:47:32.428Z,101817.47
2023-05-18T21:50:05.029Z,101822.67
2023-05-18T21:52:37.294Z,101832.33
2023-05-18T21:55:11.141Z,101825.70
2023-05-18T21:57:43.495Z,101823.90
2023-05-18T22:00:18.366Z,101821.67
2023-05-18T22:02:51.289Z,101823.45
2023-05-18T22:05:24.270Z,101828.00
2023-05-18T22:07:59.196Z,101823.45
2023-05-18T22:10:32.548Z,101820.92
2023-05-18T22:13:05.060Z,101819.58
2023-05-18T22:15:37.496Z,101820.40
2023-05-18T22:18:09.917Z,101821.46
2023-05-18T22:20:42.446Z,101814.65
2023-05-18T22:23:15.226Z,101816.84
2023-05-18T22:25:48.377Z,101813.71
2023-05-18T22:28:22.602Z,101809.45
2023-05-18T22:30:56.815Z,101814.48
2023-05-18T22:33:29.485Z,101816.63
2023-05-18T22:36:02.092Z,101817.06
2023-05-18T22:38:35.196Z,101814.81
2023-05-18T22:41:07.431Z,101813.95
2023-05-18T22:43:39.737Z,101819.45
2023-05-18T22:46:12.683Z,101819.40
2023-05-18T22:48:44.772Z,101820.48
2023-05-18T22:51:18.666Z,101824.33
2023-05-18T22:53:52.106Z,101814.71
2023-05-18T22:56:25.111Z,101818.58
2023-05-18T22:58:58.942Z,101817.14
2023-05-18T23:01:34.086Z,101820.44
2023-05-18T23:04:08.421Z,101803.49
2023-05-18T23:06:41.728Z,101816.19
2023-05-18T23:09:14.696Z,101818.09
2023-05-18T23:11:48.638Z,101822.92
2023-05-18T23:14:22.132Z,101820.98
2023-05-18T23:16:58.470Z,101814.46
2023-05-18T23:19:30.971Z,101811.49
2023-05-18T23:22:06.922Z,101813.56
2023-05-18T23:24:39.205Z,101817.92
2023-05-18T23:27:13.145Z,101815.58
2023-05-18T23:29:46.336Z,101815.14
2023-05-18T23:32:18.721Z,101811.21
2023-05-18T23:34:53.869Z,101818.63
2023-05-18T23:37:27.462Z,101815.91
2023-05-18T23:40:03.835Z,101814.65
2023-05-18T23:42:37.081Z,101818.63
2023-05-18T23:45:11.751Z,101813.82
2023-05-18T23:47:45.055Z,101795.08
2023-05-18T23:50:19.083Z,101817.66
2023-05-18T23:52:54.456Z,101817.97
2023-05-18T23:55:27.904Z,101814.30
2023-05-18T23:58:01.972Z,101818.08
